Time;durP1;ratioP1;P1;durP2;ratioP2;P2;SDS_P1;SDS_P2;PMS_P1;PMS_P2;Temp;Humidity;BMP_temperature;BMP_pressure;BME280_temperature;BME280_humidity;BME280_pressure;Samples;Min_cycle;Max_cycle;Signal;HPM_P1;HPM_P2
2022/02/05 00:02:22;;;;;;;19.27;2.42;;;;;;;2.24;100.00;100631.22;4947182;28;20042;-75
2022/02/05 00:04:49;;;;;;;12.98;2.60;;;;;;;2.30;100.00;100634.25;4961632;28;20094;-75
2022/02/05 00:07:15;;;;;;;15.13;2.28;;;;;;;2.37;100.00;100628.69;4935148;28;20078;-75
2022/02/05 00:10:19;;;;;;;16.83;2.63;;;;;;;2.36;100.00;100638.22;4933781;29;20059;-75
2022/02/05 00:15:32;;;;;;;22.70;3.47;;;;;;;2.25;100.00;100638.88;4967209;28;20039;-74
2022/02/05 00:40:16;;;;;;;6.18;1.90;;;;;;;2.25;100.00;100676.88;4957337;28;20039;-75
2022/02/05 00:42:42;;;;;;;6.53;1.70;;;;;;;2.16;100.00;100685.19;4948095;29;20522;-75
2022/02/05 00:45:10;;;;;;;10.88;1.80;;;;;;;2.18;100.00;100680.75;4935198;29;20050;-76
2022/02/05 00:47:41;;;;;;;8.10;2.08;;;;;;;2.20;100.00;100684.09;4964751;28;20035;-75
2022/02/05 00:50:13;;;;;;;10.00;1.67;;;;;;;2.18;100.00;100689.34;4942631;28;20079;-75
2022/02/05 00:52:39;;;;;;;4.28;1.13;;;;;;;2.19;100.00;100685.03;4939530;29;20031;-75
2022/02/05 00:55:09;;;;;;;10.38;1.35;;;;;;;2.24;100.00;100689.00;4925977;28;20134;-75
2022/02/05 00:57:45;;;;;;;5.53;1.13;;;;;;;2.22;100.00;100700.34;4952891;28;20073;-75
2022/02/05 01:00:16;;;;;;;4.40;1.10;;;;;;;2.27;100.00;100704.31;4965551;28;20038;-75
2022/02/05 01:02:42;;;;;;;17.02;1.77;;;;;;;2.36;100.00;100710.69;4943001;28;20027;-75
2022/02/05 01:05:09;;;;;;;4.70;1.05;;;;;;;2.36;100.00;100707.28;4951716;28;20495;-75
2022/02/05 01:07:34;;;;;;;7.72;1.50;;;;;;;2.39;100.00;100712.25;4949777;28;20287;-74
2022/02/05 01:10:00;;;;;;;6.25;1.13;;;;;;;2.47;100.00;100723.81;4952494;28;20038;-76
2022/02/05 01:12:29;;;;;;;7.43;1.25;;;;;;;2.52;100.00;100721.78;4950112;29;20045;-75
2022/02/05 01:14:58;;;;;;;8.55;1.38;;;;;;;2.38;100.00;100732.16;4953319;28;20050;-74
2022/02/05 01:17:30;;;;;;;6.50;0.98;;;;;;;2.28;100.00;100742.22;4923148;28;20031;-74
2022/02/05 01:20:27;;;;;;;5.00;1.27;;;;;;;2.20;100.00;100728.09;4940630;28;20040;-75
2022/02/05 01:22:49;;;;;;;9.30;1.25;;;;;;;2.19;100.00;100723.84;4954937;29;20446;-76
2022/02/05 01:25:20;;;;;;;8.23;1.10;;;;;;;2.10;100.00;100736.41;4925887;28;20038;-75
2022/02/05 01:27:54;;;;;;;5.72;1.00;;;;;;;2.07;100.00;100738.34;4948973;28;20048;-75
2022/02/05 01:30:26;;;;;;;6.88;0.93;;;;;;;2.08;100.00;100735.66;4924445;29;20453;-75
2022/02/05 01:52:25;;;;;;;10.65;1.40;;;;;;;1.95;100.00;100756.25;4954960;28;20065;-76
2022/02/05 01:57:51;;;;;;;6.20;1.40;;;;;;;1.99;100.00;100753.50;4948416;28;20557;-74
2022/02/05 02:16:05;;;;;;;13.70;1.90;;;;;;;2.18;100.00;100758.41;4946971;28;20077;-75
2022/02/05 02:24:13;;;;;;;5.85;1.65;;;;;;;2.23;100.00;100759.78;4945949;28;20056;-74
2022/02/05 02:32:02;;;;;;;10.82;2.17;;;;;;;2.29;100.00;100764.59;4929953;28;20075;-74
2022/02/05 02:34:33;;;;;;;11.15;1.60;;;;;;;2.36;100.00;100756.47;4966136;28;20083;-73
2022/02/05 02:37:10;;;;;;;6.60;1.30;;;;;;;2.30;100.00;100762.84;4937225;29;20046;-75
2022/02/05 02:39:53;;;;;;;7.50;1.70;;;;;;;2.34;100.00;100769.50;4924152;29;20038;-76
2022/02/05 02:42:20;;;;;;;11.30;1.92;;;;;;;2.29;100.00;100771.53;4942963;28;20046;-76
2022/02/05 02:44:46;;;;;;;6.90;1.40;;;;;;;2.21;100.00;100773.75;4942795;29;20070;-76
2022/02/05 02:47:12;;;;;;;5.57;1.33;;;;;;;2.14;100.00;100775.88;4950713;28;20499;-76
2022/02/05 02:57:34;;;;;;;13.93;3.38;;;;;;;2.18;100.00;100786.88;4950580;28;20031;-75
2022/02/05 03:00:03;;;;;;;15.07;4.25;;;;;;;2.18;100.00;100781.69;4928481;29;20042;-75
2022/02/05 03:02:29;;;;;;;18.50;4.15;;;;;;;2.24;100.00;100792.53;4927649;29;20047;-76
2022/02/05 03:04:56;;;;;;;18.33;4.63;;;;;;;2.32;100.00;100799.81;4954068;28;20043;-74
2022/02/05 03:07:25;;;;;;;16.02;4.43;;;;;;;2.41;100.00;100812.22;4925725;28;20051;-74
2022/02/05 03:09:52;;;;;;;21.85;4.43;;;;;;;2.39;100.00;100801.09;4953837;28;20035;-75
2022/02/05 03:12:19;;;;;;;9.50;3.30;;;;;;;2.41;100.00;100826.91;4951314;28;20035;-75
2022/02/05 03:14:46;;;;;;;12.68;4.07;;;;;;;2.30;100.00;100825.81;4955339;28;20075;-75
2022/02/05 03:17:16;;;;;;;11.00;2.97;;;;;;;2.16;100.00;100809.41;4968355;28;20383;-74
2022/02/05 03:19:44;;;;;;;8.30;1.90;;;;;;;2.00;100.00;100799.13;4941154;28;20537;-74
2022/02/05 03:22:10;;;;;;;8.57;2.03;;;;;;;1.93;100.00;100812.41;4937901;28;20493;-75
2022/02/05 03:24:35;;;;;;;9.00;2.15;;;;;;;1.86;100.00;100816.28;4941366;28;20039;-75
2022/02/05 03:27:01;;;;;;;5.57;1.48;;;;;;;1.87;100.00;100820.53;4951864;28;20053;-75
2022/02/05 03:29:27;;;;;;;6.28;1.40;;;;;;;1.79;100.00;100816.72;4948735;28;20035;-74
2022/02/05 03:31:53;;;;;;;5.82;1.23;;;;;;;1.78;100.00;100820.25;4964204;28;20413;-75
2022/02/05 03:34:18;;;;;;;9.50;1.45;;;;;;;1.77;100.00;100840.09;4953755;28;20078;-74
2022/02/05 03:36:44;;;;;;;5.20;1.08;;;;;;;1.70;100.00;100869.81;4968519;28;20082;-74
2022/02/05 03:39:10;;;;;;;6.60;1.20;;;;;;;1.63;100.00;100881.41;4954644;28;20038;-75
2022/02/05 03:41:36;;;;;;;5.65;1.02;;;;;;;1.69;100.00;100888.84;4971458;28;20039;-75
2022/02/05 03:44:02;;;;;;;7.30;0.93;;;;;;;1.51;100.00;100876.00;4924341;28;20071;-75
2022/02/05 03:46:29;;;;;;;6.03;0.85;;;;;;;1.71;100.00;100902.50;4951018;28;20062;-74
2022/02/05 03:48:55;;;;;;;5.53;1.30;;;;;;;1.58;100.00;100914.44;4952291;28;20466;-74
2022/02/05 03:51:21;;;;;;;5.72;1.20;;;;;;;1.43;100.00;100931.63;4932581;29;20555;-74
2022/02/05 03:53:46;;;;;;;7.00;1.33;;;;;;;1.29;100.00;100948.72;4949419;28;20047;-74
2022/02/05 03:56:12;;;;;;;6.75;0.80;;;;;;;1.11;100.00;100936.75;4932135;28;20035;-74
2022/02/05 03:58:37;;;;;;;12.75;0.88;;;;;;;0.80;100.00;100959.03;4937877;29;20145;-75
2022/02/05 04:01:03;;;;;;;4.10;1.00;;;;;;;0.65;100.00;100950.31;4943958;28;20039;-75
2022/02/05 04:03:29;;;;;;;6.70;0.90;;;;;;;0.71;100.00;100920.75;4953906;28;20031;-74
2022/02/05 04:05:56;;;;;;;5.15;0.98;;;;;;;0.83;100.00;100909.81;4936594;28;20050;-74
2022/02/05 04:08:22;;;;;;;5.00;1.20;;;;;;;0.86;100.00;100922.53;4954661;28;20106;-75
2022/02/05 04:10:58;;;;;;;8.02;1.50;;;;;;;0.87;100.00;100918.25;4968271;28;20051;-75
2022/02/05 04:16:22;;;;;;;5.43;0.80;;;;;;;0.81;100.00;100888.41;4950343;29;20134;-75
2022/02/05 04:18:57;;;;;;;3.67;0.50;;;;;;;0.73;100.00;100909.44;4956978;28;20039;-74
2022/02/05 04:21:24;;;;;;;5.90;0.60;;;;;;;0.61;100.00;100919.56;4932102;28;20058;-75
2022/02/05 04:23:50;;;;;;;4.00;0.60;;;;;;;0.68;100.00;100920.91;4936177;29;20035;-75
2022/02/05 04:26:17;;;;;;;1.77;0.60;;;;;;;0.62;100.00;100924.63;4953320;28;20042;-75
2022/02/05 04:28:43;;;;;;;3.63;0.80;;;;;;;0.52;100.00;100926.03;4950794;28;20046;-74
2022/02/05 04:31:09;;;;;;;7.07;1.00;;;;;;;0.53;100.00;100930.28;4944796;29;20039;-73
2022/02/05 04:33:36;;;;;;;6.85;0.75;;;;;;;0.47;100.00;100931.44;4953014;28;20050;-75
2022/02/05 04:36:03;;;;;;;3.85;0.77;;;;;;;0.41;100.00;100933.47;4941528;28;20039;-75
2022/02/05 04:38:30;;;;;;;5.75;0.90;;;;;;;0.47;100.00;100933.16;4940834;28;20544;-75
2022/02/05 04:41:02;;;;;;;4.38;0.77;;;;;;;0.49;100.00;100944.25;4948893;29;20047;-75
2022/02/05 04:46:29;;;;;;;3.42;1.50;;;;;;;0.35;100.00;100942.34;4933567;29;20051;-75
2022/02/05 04:50:08;;;;;;;6.10;1.70;;;;;;;0.51;100.00;100939.84;4954237;28;20035;-75
2022/02/05 05:02:34;;;;;;;6.93;1.60;;;;;;;0.55;100.00;100951.69;4962069;28;20046;-75
2022/02/05 05:05:20;;;;;;;2.97;1.30;;;;;;;0.43;100.00;100954.88;4962010;28;20054;-75
2022/02/05 05:08:07;;;;;;;9.80;1.40;;;;;;;0.46;100.00;100965.06;4926165;29;20502;-74
2022/02/05 05:13:15;;;;;;;4.50;0.90;;;;;;;0.86;100.00;100961.28;4952341;28;20034;-75
2022/02/05 05:19:13;;;;;;;10.02;1.35;;;;;;;0.85;100.00;100961.34;4954199;28;20050;-75
2022/02/05 05:21:10;;;;;;;6.68;1.00;;;;;;;0.95;100.00;100968.56;4940866;28;20045;-75
2022/02/05 05:23:36;;;;;;;11.65;1.20;;;;;;;1.00;100.00;100978.69;4926139;29;20036;-75
2022/02/05 05:26:02;;;;;;;10.90;0.95;;;;;;;0.93;100.00;100974.72;4960107;28;20039;-75
2022/02/05 05:28:27;;;;;;;8.27;1.00;;;;;;;0.94;100.00;100984.13;4949990;28;20078;-76
2022/02/05 05:30:53;;;;;;;10.40;1.15;;;;;;;0.83;100.00;100995.03;4952636;28;20117;-76
2022/02/05 05:33:19;;;;;;;7.75;1.20;;;;;;;0.90;100.00;100995.53;4955577;28;20031;-75
2022/02/05 05:35:45;;;;;;;8.90;1.02;;;;;;;0.95;100.00;100998.72;4956658;28;20027;-75
2022/02/05 05:38:11;;;;;;;9.15;1.17;;;;;;;0.98;100.00;101011.50;4936869;29;20412;-76
2022/02/05 05:40:37;;;;;;;12.05;1.30;;;;;;;0.86;100.00;101022.44;4951583;28;20034;-75
2022/02/05 05:43:06;;;;;;;8.10;1.23;;;;;;;0.93;100.00;101021.22;4949715;29;20032;-76
2022/02/05 05:45:50;;;;;;;10.25;1.60;;;;;;;0.87;100.00;101016.38;4952102;28;20031;-75
2022/02/05 05:48:26;;;;;;;11.50;1.65;;;;;;;0.97;100.00;101015.00;4953315;28;20038;-76
2022/02/05 05:50:59;;;;;;;8.38;1.17;;;;;;;1.01;100.00;101019.06;4950063;29;20038;-75
2022/02/05 05:53:26;;;;;;;14.65;0.93;;;;;;;1.06;100.00;101034.34;4951492;28;20528;-75
2022/02/05 05:55:52;;;;;;;12.38;1.73;;;;;;;1.01;100.00;101026.81;4949019;28;20231;-75
2022/02/05 05:58:19;;;;;;;14.48;1.20;;;;;;;0.94;100.00;101046.97;4938282;28;20405;-76
2022/02/05 06:00:48;;;;;;;9.38;1.13;;;;;;;1.01;100.00;101057.00;4943605;28;20027;-76
2022/02/05 06:03:13;;;;;;;8.63;1.08;;;;;;;0.95;100.00;101051.22;4948384;29;20031;-76
2022/02/05 06:05:40;;;;;;;11.07;1.70;;;;;;;1.01;100.00;101060.41;4933192;28;20050;-76
2022/02/05 06:08:05;;;;;;;7.90;1.17;;;;;;;1.02;100.00;101059.50;4965324;28;20109;-76
2022/02/05 06:10:32;;;;;;;14.38;2.03;;;;;;;1.01;100.00;101063.00;4948578;28;20107;-76
2022/02/05 06:12:58;;;;;;;8.80;1.52;;;;;;;1.05;100.00;101054.16;4943084;28;20059;-75
2022/02/05 06:15:24;;;;;;;9.43;1.75;;;;;;;1.03;100.00;101070.66;4939986;28;21268;-75
2022/02/05 06:17:51;;;;;;;12.13;1.38;;;;;;;1.00;100.00;101073.41;4966025;28;20039;-75
2022/02/05 06:20:17;;;;;;;11.38;1.48;;;;;;;1.04;100.00;101073.19;4941106;28;20027;-75
2022/02/05 06:22:43;;;;;;;9.68;1.48;;;;;;;1.19;100.00;101086.22;4944651;29;20479;-75
2022/02/05 06:25:09;;;;;;;8.82;1.13;;;;;;;1.21;100.00;101090.41;4949894;28;20114;-76
2022/02/05 06:27:34;;;;;;;7.38;1.25;;;;;;;1.30;100.00;101094.25;4939833;28;20042;-75
2022/02/05 06:30:01;;;;;;;15.13;1.88;;;;;;;1.32;100.00;101106.22;4951724;28;20043;-76
2022/02/05 06:32:26;;;;;;;13.30;1.55;;;;;;;1.28;100.00;101112.47;4951970;28;20043;-77
2022/02/05 06:34:52;;;;;;;11.85;1.70;;;;;;;1.29;100.00;101102.94;4927378;28;20050;-75
2022/02/05 06:37:18;;;;;;;12.02;2.28;;;;;;;1.09;100.00;101101.34;4941381;28;20559;-75
2022/02/05 06:39:44;;;;;;;9.32;1.58;;;;;;;1.17;100.00;101109.59;4951013;28;20470;-76
2022/02/05 06:42:10;;;;;;;11.10;1.30;;;;;;;1.22;100.00;101106.75;4950112;28;20031;-76
2022/02/05 06:44:36;;;;;;;14.65;1.60;;;;;;;1.20;100.00;101108.56;4949656;28;20418;-75
2022/02/05 06:47:02;;;;;;;12.75;1.48;;;;;;;1.19;100.00;101105.16;4954124;28;20031;-76
2022/02/05 06:49:30;;;;;;;15.55;1.65;;;;;;;1.24;100.00;101108.34;4921442;28;20472;-75
2022/02/05 06:51:55;;;;;;;18.85;1.75;;;;;;;1.14;100.00;101120.06;4950076;28;20442;-76
2022/02/05 06:54:21;;;;;;;11.80;1.45;;;;;;;1.20;100.00;101117.16;4950252;29;20031;-75
2022/02/05 06:56:46;;;;;;;14.02;1.38;;;;;;;1.18;100.00;101121.56;4965987;28;20047;-76
2022/02/05 06:59:12;;;;;;;16.90;1.63;;;;;;;1.22;100.00;101123.09;4943943;28;20032;-74
2022/02/05 07:01:37;;;;;;;12.93;1.65;;;;;;;1.20;100.00;101121.50;4963943;28;20090;-77
2022/02/05 07:04:05;;;;;;;13.07;1.52;;;;;;;1.03;100.00;101124.91;4949143;29;20039;-76
2022/02/05 07:06:31;;;;;;;10.05;1.20;;;;;;;1.10;100.00;101126.28;4964814;28;20031;-74
2022/02/05 07:08:56;;;;;;;11.82;1.42;;;;;;;1.16;100.00;101125.97;4935346;29;20121;-74
2022/02/05 07:11:22;;;;;;;14.95;1.63;;;;;;;1.19;100.00;101131.00;4933303;29;20157;-74
2022/02/05 07:13:50;;;;;;;7.47;1.40;;;;;;;1.17;100.00;101132.84;4950462;28;20050;-74
2022/02/05 07:16:24;;;;;;;8.95;1.50;;;;;;;1.22;100.00;101148.09;4922588;28;20133;-74
2022/02/05 07:21:39;;;;;;;8.25;1.40;;;;;;;1.25;100.00;101155.72;4948144;28;20540;-74
2022/02/05 07:29:16;;;;;;;8.90;1.58;;;;;;;1.50;100.00;101156.13;4953108;28;20045;-75
2022/02/05 07:31:53;;;;;;;16.80;1.40;;;;;;;1.33;100.00;101156.16;4944357;28;20034;-75
2022/02/05 07:34:30;;;;;;;15.82;1.98;;;;;;;1.33;100.00;101159.56;4933760;28;20818;-75
2022/02/05 07:37:02;;;;;;;18.52;1.90;;;;;;;1.21;100.00;101170.53;4952033;28;20098;-74
2022/02/05 07:39:30;;;;;;;20.10;1.83;;;;;;;1.28;100.00;101183.97;4967892;28;20035;-75
2022/02/05 07:41:56;;;;;;;11.32;1.77;;;;;;;1.40;100.00;101177.38;4949455;28;20043;-74
2022/02/05 07:44:22;;;;;;;16.75;2.10;;;;;;;1.44;100.00;101173.72;4955356;28;20070;-75
2022/02/05 07:46:51;;;;;;;21.23;1.58;;;;;;;1.49;100.00;101174.34;4954601;28;20046;-75
2022/02/05 07:49:19;;;;;;;17.45;1.65;;;;;;;1.51;100.00;101173.31;4929916;29;20040;-75
2022/02/05 07:51:46;;;;;;;24.83;2.53;;;;;;;1.60;100.00;101169.44;4951090;29;20090;-75
2022/02/05 07:54:12;;;;;;;18.73;2.40;;;;;;;1.69;100.00;101171.53;4967091;28;20094;-74
2022/02/05 07:56:41;;;;;;;15.68;2.00;;;;;;;1.66;100.00;101174.31;4950614;28;20129;-77
2022/02/05 07:59:07;;;;;;;13.40;1.95;;;;;;;1.71;100.00;101184.41;4954078;28;20028;-77
2022/02/05 08:01:32;;;;;;;22.67;1.88;;;;;;;1.68;100.00;101179.41;4953572;28;20451;-75
2022/02/05 08:04:00;;;;;;;12.52;1.90;;;;;;;1.64;100.00;101199.41;4930153;29;20035;-74
2022/02/05 08:06:25;;;;;;;15.57;3.10;;;;;;;1.74;100.00;101199.78;4961739;28;20860;-75
2022/02/05 08:08:55;;;;;;;7.85;1.50;;;;;;;1.80;100.00;101198.63;4969526;28;20070;-75
2022/02/05 08:11:23;;;;;;;16.38;1.92;;;;;;;1.82;100.00;101210.53;4968150;28;20051;-74
2022/02/05 08:13:51;;;;;;;17.15;1.92;;;;;;;1.89;100.00;101211.91;4959625;28;20043;-74
2022/02/05 08:18:49;;;;;;;12.50;2.08;;;;;;;2.01;100.00;101227.72;4954710;28;20043;-75
2022/02/05 08:21:15;;;;;;;16.65;2.42;;;;;;;2.03;100.00;101224.13;4937068;29;20072;-75
2022/02/05 08:23:40;;;;;;;17.98;2.70;;;;;;;2.14;100.00;101220.97;4952992;28;20494;-75
2022/02/05 08:26:06;;;;;;;17.67;2.67;;;;;;;2.07;100.00;101229.97;4945358;29;20107;-75
2022/02/05 08:28:33;;;;;;;26.00;2.60;;;;;;;2.15;100.00;101227.84;4954598;28;20038;-75
2022/02/05 08:30:58;;;;;;;21.25;3.40;;;;;;;2.22;100.00;101230.94;4960934;28;20046;-75
2022/02/05 08:33:24;;;;;;;20.95;2.45;;;;;;;2.27;100.00;101234.94;4944747;29;20031;-76
2022/02/05 08:35:50;;;;;;;14.43;2.00;;;;;;;2.34;100.00;101245.84;4951521;28;20149;-76
2022/02/05 08:38:17;;;;;;;24.35;3.33;;;;;;;2.36;100.00;101240.59;4936310;29;20531;-74
2022/02/05 08:40:43;;;;;;;27.10;2.78;;;;;;;2.40;100.00;101249.84;4935436;29;20031;-74
2022/02/05 08:43:09;;;;;;;17.25;2.70;;;;;;;2.46;100.00;101237.41;4951134;28;20378;-75
2022/02/05 08:45:36;;;;;;;34.53;3.25;;;;;;;2.51;100.00;101252.72;4953072;28;20421;-75
2022/02/05 08:48:02;;;;;;;27.00;2.95;;;;;;;2.51;100.00;101242.34;4953862;28;20074;-75
2022/02/05 08:50:28;;;;;;;25.33;3.20;;;;;;;2.54;100.00;101247.34;4940621;29;20039;-76
2022/02/05 08:52:55;;;;;;;20.90;3.00;;;;;;;2.59;100.00;101249.72;4934435;29;20049;-75
2022/02/05 08:55:22;;;;;;;19.50;3.03;;;;;;;2.61;100.00;101246.09;4949374;29;20365;-74
2022/02/05 08:57:48;;;;;;;30.40;3.20;;;;;;;2.65;100.00;101257.13;4951705;28;20190;-74
2022/02/05 09:00:16;;;;;;;24.48;3.35;;;;;;;2.66;100.00;101243.28;4948087;28;20145;-76
2022/02/05 09:03:24;;;;;;;22.00;2.70;;;;;;;2.69;100.00;101245.69;4932858;29;20035;-74
2022/02/05 09:05:47;;;;;;;23.35;3.00;;;;;;;2.69;100.00;101237.91;4949483;28;20055;-75
2022/02/05 09:08:32;;;;;;;24.70;3.13;;;;;;;2.82;100.00;101253.63;4933447;29;20043;-74
2022/02/05 09:11:11;;;;;;;17.20;3.53;;;;;;;2.88;100.00;101243.78;4949709;29;20039;-77
2022/02/05 09:13:51;;;;;;;20.02;3.65;;;;;;;2.97;100.00;101251.97;4929929;29;20038;-74
2022/02/05 09:16:17;;;;;;;29.15;3.22;;;;;;;3.09;100.00;101251.28;4937569;28;20023;-76
2022/02/05 09:18:45;;;;;;;21.40;3.42;;;;;;;3.18;100.00;101255.94;4949909;29;20031;-75
2022/02/05 09:21:11;;;;;;;18.60;2.92;;;;;;;3.31;100.00;101262.13;4951809;28;20042;-75
2022/02/05 09:23:40;;;;;;;24.98;2.90;;;;;;;3.33;100.00;101248.22;4954871;28;20035;-75
2022/02/05 09:26:09;;;;;;;22.10;2.70;;;;;;;3.44;100.00;101262.22;4957957;28;20118;-75
2022/02/05 09:28:35;;;;;;;17.08;2.65;;;;;;;3.44;100.00;101264.81;4935417;29;20039;-74
2022/02/05 09:33:28;;;;;;;21.98;2.50;;;;;;;3.70;100.00;101271.13;4951800;28;20477;-74
2022/02/05 09:35:53;;;;;;;19.25;2.40;;;;;;;3.84;100.00;101272.06;4954153;28;20046;-75
2022/02/05 09:38:19;;;;;;;27.35;3.10;;;;;;;3.69;100.00;101274.66;4949839;28;20489;-75
2022/02/05 09:40:45;;;;;;;18.05;2.63;;;;;;;3.66;100.00;101279.19;4933301;29;20126;-74
2022/02/05 09:43:10;;;;;;;20.50;2.90;;;;;;;3.77;100.00;101276.78;4928653;28;20039;-75
2022/02/05 09:45:36;;;;;;;17.90;3.45;;;;;;;3.80;100.00;101281.78;4926385;29;20050;-74
2022/02/05 09:48:03;;;;;;;21.25;2.50;;;;;;;3.82;100.00;101276.50;4927044;29;20035;-74
2022/02/05 09:50:28;;;;;;;20.17;2.75;;;;;;;3.96;100.00;101286.09;4950775;28;20032;-76
2022/02/05 09:53:01;;;;;;;23.52;3.28;;;;;;;4.17;100.00;101287.41;4935760;29;21088;-75
2022/02/05 09:55:26;;;;;;;22.75;3.63;;;;;;;4.35;100.00;101295.03;4942023;29;20035;-75
2022/02/05 09:57:52;;;;;;;18.55;2.35;;;;;;;4.10;100.00;101281.75;4950602;28;20391;-75
2022/02/05 10:00:19;;;;;;;22.05;2.72;;;;;;;4.00;100.00;101270.25;4953895;28;20060;-76
2022/02/05 10:02:50;;;;;;;17.52;2.92;;;;;;;4.08;100.00;101287.97;4952539;28;20035;-76
2022/02/05 10:05:21;;;;;;;16.38;2.03;;;;;;;4.10;100.00;101288.69;4930681;28;20038;-76
2022/02/05 10:08:18;;;;;;;22.92;2.72;;;;;;;4.46;100.00;101295.19;4953267;28;20047;-76
2022/02/05 10:10:45;;;;;;;17.45;3.10;;;;;;;4.54;100.00;101290.41;4954725;28;20103;-75
2022/02/05 10:13:13;;;;;;;15.90;2.35;;;;;;;4.46;100.00;101287.41;4950725;29;20039;-75
2022/02/05 10:15:41;;;;;;;23.85;2.75;;;;;;;4.40;100.00;101298.19;4935914;29;20035;-76
2022/02/05 10:18:20;;;;;;;19.20;2.55;;;;;;;4.43;100.00;101295.41;4936739;28;20039;-74
2022/02/05 10:20:46;;;;;;;17.63;2.58;;;;;;;4.42;100.00;101294.56;4953853;28;20039;-77
2022/02/05 10:23:12;;;;;;;18.55;2.17;;;;;;;4.25;100.00;101292.97;4951587;28;20042;-75
2022/02/05 10:25:38;;;;;;;19.65;2.92;;;;;;;4.24;100.00;101291.31;4931822;29;20043;-76
2022/02/05 10:28:11;;;;;;;20.60;2.70;;;;;;;4.22;100.00;101289.72;4950576;28;20039;-75
2022/02/05 10:30:43;;;;;;;22.73;3.55;;;;;;;4.31;100.00;101288.34;4920289;29;20035;-76
2022/02/05 10:33:17;;;;;;;17.27;2.55;;;;;;;4.45;100.00;101306.53;4951469;29;20046;-75
2022/02/05 10:36:00;;;;;;;21.98;3.38;;;;;;;4.49;100.00;101308.84;4950706;28;20038;-74
2022/02/05 10:43:53;;;;;;;19.90;2.90;;;;;;;4.52;100.00;101302.66;4946069;28;20082;-76
2022/02/05 10:46:19;;;;;;;22.90;3.00;;;;;;;4.60;100.00;101303.00;4935045;28;20185;-75
2022/02/05 10:48:44;;;;;;;32.95;3.67;;;;;;;4.64;100.00;101296.69;4951279;28;20027;-74
2022/02/05 10:51:10;;;;;;;21.95;3.38;;;;;;;4.65;100.00;101300.09;4949144;28;20046;-73
2022/02/05 10:53:43;;;;;;;25.92;3.13;;;;;;;4.68;100.00;101300.75;4949431;28;20035;-75
2022/02/05 10:56:21;;;;;;;19.02;2.55;;;;;;;4.82;100.00;101309.47;4946557;28;20085;-75
2022/02/05 10:59:14;;;;;;;20.05;2.75;;;;;;;4.99;100.00;101324.88;4946764;28;20047;-74
2022/02/05 11:07:14;;;;;;;27.95;3.55;;;;;;;4.75;100.00;101303.81;4950137;29;20035;-75
2022/02/05 11:09:49;;;;;;;31.25;3.58;;;;;;;4.82;100.00;101296.47;4953234;28;20122;-75
2022/02/05 11:20:21;;;;;;;19.50;3.00;;;;;;;5.02;100.00;101313.44;4952731;28;20927;-75
2022/02/05 11:22:49;;;;;;;20.45;2.95;;;;;;;5.07;100.00;101303.56;4952038;28;20050;-75
2022/02/05 11:25:17;;;;;;;27.45;3.45;;;;;;;4.99;100.00;101300.59;4933240;29;20584;-76
2022/02/05 11:27:52;;;;;;;23.83;3.00;;;;;;;5.04;100.00;101299.38;4949627;28;20064;-75
2022/02/05 11:30:27;;;;;;;17.80;2.80;;;;;;;5.16;100.00;101297.78;4938694;28;20382;-75
2022/02/05 11:32:55;;;;;;;24.15;2.97;;;;;;;5.15;100.00;101296.13;4955015;28;20402;-76
2022/02/05 11:35:32;;;;;;;19.92;2.83;;;;;;;5.22;100.00;101287.00;4936262;28;20039;-76
2022/02/05 11:38:00;;;;;;;24.95;2.95;;;;;;;5.22;100.00;101288.75;4956715;28;20436;-76
2022/02/05 11:40:41;;;;;;;24.60;2.60;;;;;;;5.06;100.00;101286.28;4928855;29;20050;-76
2022/02/05 11:43:16;;;;;;;23.10;3.00;;;;;;;5.01;100.00;101288.34;4950039;28;20478;-75
2022/02/05 11:45:42;;;;;;;22.08;3.05;;;;;;;5.07;100.00;101293.19;4926065;29;20062;-76
2022/02/05 11:48:37;;;;;;;20.98;3.13;;;;;;;5.03;98.61;101297.72;4954948;28;20532;-77
2022/02/05 11:51:13;;;;;;;13.35;2.53;;;;;;;5.18;100.00;101290.72;4951491;29;20038;-75
2022/02/05 11:54:00;;;;;;;17.67;2.53;;;;;;;5.49;100.00;101299.16;4944804;29;20887;-75
2022/02/05 11:56:56;;;;;;;23.50;3.10;;;;;;;5.64;99.27;101302.50;4944633;28;20035;-75
2022/02/05 11:59:23;;;;;;;18.08;2.47;;;;;;;5.87;97.98;101282.75;4962562;28;20049;-75
2022/02/05 12:01:49;;;;;;;17.33;3.22;;;;;;;5.93;95.53;101284.94;4947527;28;20067;-76
2022/02/05 12:04:23;;;;;;;20.55;2.60;;;;;;;5.93;93.64;101279.75;4944031;28;20092;-75
2022/02/05 12:06:57;;;;;;;20.90;3.25;;;;;;;5.98;93.72;101287.28;4936727;28;20051;-76
2022/02/05 12:09:42;;;;;;;15.77;2.38;;;;;;;6.34;92.22;101281.34;4948099;28;20035;-75
2022/02/05 12:12:23;;;;;;;17.00;2.45;;;;;;;6.61;92.11;101283.81;4951950;28;20407;-75
2022/02/05 12:15:08;;;;;;;20.13;2.90;;;;;;;6.53;90.65;101269.63;4954045;28;20039;-75
2022/02/05 12:18:16;;;;;;;17.02;2.25;;;;;;;6.23;92.00;101284.69;4949209;28;20704;-74
2022/02/05 12:20:52;;;;;;;13.52;2.10;;;;;;;6.19;92.45;101274.56;4951429;28;20449;-76
2022/02/05 12:25:57;;;;;;;13.60;2.50;;;;;;;6.01;94.58;101276.69;4951631;28;20050;-75
2022/02/05 12:28:28;;;;;;;13.35;2.45;;;;;;;6.14;93.22;101276.66;4944979;28;20081;-74
2022/02/05 12:30:55;;;;;;;11.27;1.85;;;;;;;6.34;90.72;101285.72;4950469;29;20045;-76
2022/02/05 12:33:21;;;;;;;17.35;2.40;;;;;;;6.30;91.32;101271.25;4942251;29;20494;-77
2022/02/05 12:35:51;;;;;;;19.02;3.10;;;;;;;5.91;89.65;101266.00;4953391;28;20086;-75
2022/02/05 12:38:18;;;;;;;13.57;2.35;;;;;;;5.71;91.27;101280.34;4949725;28;20050;-74
2022/02/05 12:40:47;;;;;;;16.83;2.30;;;;;;;5.70;92.22;101275.25;4954575;28;20028;-76
2022/02/05 12:43:14;;;;;;;15.25;2.88;;;;;;;5.59;92.46;101273.34;4934971;29;20820;-75
2022/02/05 12:45:52;;;;;;;17.75;2.80;;;;;;;5.37;95.48;101256.56;4941059;28;20788;-76
2022/02/05 12:48:20;;;;;;;18.77;2.22;;;;;;;5.33;96.39;101272.44;4952570;28;20031;-76
2022/02/05 12:50:48;;;;;;;15.30;2.13;;;;;;;5.30;95.53;101270.06;4955712;28;20673;-75
2022/02/05 12:53:14;;;;;;;19.75;3.35;;;;;;;5.43;95.74;101265.72;4934934;29;20129;-75
2022/02/05 12:55:45;;;;;;;21.58;2.75;;;;;;;5.54;95.19;101265.84;4939083;28;20521;-75
2022/02/05 12:58:13;;;;;;;18.85;2.85;;;;;;;5.46;93.87;101255.97;4922908;29;20551;-75
2022/02/05 13:00:39;;;;;;;13.82;2.67;;;;;;;5.47;96.35;101257.59;4950175;28;20039;-75
2022/02/05 13:03:25;;;;;;;16.48;3.17;;;;;;;5.36;95.00;101246.25;4954110;28;20043;-77
2022/02/05 13:05:51;;;;;;;20.27;2.85;;;;;;;5.68;95.12;101219.84;4953710;28;20031;-75
2022/02/05 13:08:16;;;;;;;18.75;2.75;;;;;;;6.13;93.18;101241.16;4931490;29;20042;-76
2022/02/05 13:10:44;;;;;;;18.55;2.78;;;;;;;6.06;94.13;101238.13;4949502;28;20110;-75
2022/02/05 13:13:10;;;;;;;19.42;2.58;;;;;;;6.10;91.35;101233.53;4950532;28;20074;-74
2022/02/05 13:15:35;;;;;;;17.13;2.88;;;;;;;6.81;88.56;101235.44;4935767;29;20042;-76
2022/02/05 13:28:38;;;;;;;21.33;2.42;;;;;;;5.55;91.08;101238.06;4953037;28;20027;-77
2022/02/05 13:34:12;;;;;;;17.67;3.10;;;;;;;5.34;94.07;101240.31;4950039;28;20046;-77
2022/02/05 13:36:45;;;;;;;18.85;2.55;;;;;;;5.25;94.70;101239.13;4916242;29;20039;-76
2022/02/05 13:42:07;;;;;;;19.73;2.55;;;;;;;6.38;87.18;101235.06;4935496;29;20110;-75
2022/02/05 13:47:43;;;;;;;21.13;2.78;;;;;;;5.93;90.08;101232.88;4952796;28;20541;-73
2022/02/05 13:50:11;;;;;;;22.73;3.40;;;;;;;5.61;89.77;101224.63;4948844;28;20031;-77
2022/02/05 13:52:48;;;;;;;21.50;2.70;;;;;;;5.49;91.05;101220.25;4938775;28;20398;-75
2022/02/05 13:55:29;;;;;;;19.35;2.80;;;;;;;5.43;90.82;101213.69;4949182;29;20035;-76
2022/02/05 13:58:03;;;;;;;20.95;2.90;;;;;;;5.50;92.09;101217.56;4949837;28;20592;-76
2022/02/05 14:00:39;;;;;;;20.75;3.13;;;;;;;5.52;90.07;101220.03;4918635;29;20035;-75
2022/02/05 14:03:08;;;;;;;20.00;2.90;;;;;;;5.62;91.18;101215.91;4949208;28;20619;-75
2022/02/05 14:05:35;;;;;;;12.15;2.58;;;;;;;5.55;91.91;101215.47;4954179;28;20038;-75
2022/02/05 14:08:01;;;;;;;15.82;2.90;;;;;;;5.46;92.14;101214.31;4940748;28;20039;-74
2022/02/05 14:10:26;;;;;;;26.88;3.78;;;;;;;5.36;94.65;101226.25;4949616;28;20043;-75
2022/02/05 14:12:55;;;;;;;19.35;2.58;;;;;;;5.25;92.88;101218.31;4949698;28;20050;-75